createdAt,value
2023-05-02T00:01:00.463Z,100983.81
2023-05-02T00:03:46.186Z,100984.72
2023-05-02T00:06:31.747Z,100991.66
2023-05-02T00:09:17.027Z,100988.22
2023-05-02T00:12:02.474Z,100988.03
2023-05-02T00:14:47.832Z,100998.41
2023-05-02T00:17:32.992Z,100994.06
2023-05-02T00:20:18.355Z,100995.75
2023-05-02T00:23:03.837Z,100992.25
2023-05-02T00:25:48.974Z,100994.91
2023-05-02T00:28:34.251Z,101003.53
2023-05-02T00:31:19.835Z,101001.81
2023-05-02T00:34:04.911Z,100998.47
2023-05-02T00:36:50.389Z,100992.25
2023-05-02T00:39:36.679Z,100995.88
2023-05-02T00:42:21.803Z,100993.22
2023-05-02T00:45:07.253Z,100995.75
2023-05-02T00:47:52.574Z,100993.06
2023-05-02T00:50:40.702Z,100990.22
2023-05-02T00:53:25.900Z,100987.66
2023-05-02T00:56:11.478Z,100995.63
2023-05-02T00:58:56.806Z,101006.03
2023-05-02T01:02:12.691Z,101007.81
2023-05-02T01:05:05.760Z,101002.56
2023-05-02T01:08:18.549Z,101006.94
2023-05-02T01:11:15.737Z,101014.88
2023-05-02T01:14:05.665Z,101008.81
2023-05-02T01:16:52.784Z,101003.81
2023-05-02T01:19:45.071Z,101002.31
2023-05-02T01:22:32.250Z,101003.69
2023-05-02T01:25:31.434Z,101004.66
2023-05-02T01:28:44.516Z,101002.66
2023-05-02T01:31:35.153Z,101009.69
2023-05-02T01:34:22.171Z,101004.97
2023-05-02T01:37:10.920Z,101008.72
2023-05-02T01:39:59.094Z,101007.00
2023-05-02T01:42:45.497Z,101011.22
2023-05-02T01:45:33.056Z,101012.78
2023-05-02T01:48:19.614Z,101012.06
2023-05-02T01:51:07.181Z,101021.63
2023-05-02T01:53:53.508Z,101029.16
2023-05-02T01:56:39.666Z,101041.44
2023-05-02T01:59:27.191Z,101040.59
2023-05-02T02:02:14.184Z,101045.06
2023-05-02T02:05:00.683Z,101049.22
2023-05-02T02:07:46.267Z,101055.00
2023-05-02T02:10:40.370Z,101061.16
2023-05-02T02:13:37.087Z,101065.94
2023-05-02T02:16:28.827Z,101065.13
2023-05-02T02:19:15.201Z,101068.59
2023-05-02T02:22:00.718Z,101072.22
2023-05-02T02:24:47.741Z,101072.16
2023-05-02T02:27:32.807Z,101080.44
2023-05-02T02:30:18.038Z,101083.91
2023-05-02T02:33:03.529Z,101087.47
2023-05-02T02:35:58.453Z,101084.72
2023-05-02T02:38:54.174Z,101089.66
2023-05-02T02:41:55.868Z,101094.09
2023-05-02T02:45:14.492Z,101092.53
2023-05-02T02:48:08.392Z,101102.91
2023-05-02T02:51:13.962Z,101104.41
2023-05-02T02:54:35.887Z,101105.25
2023-05-02T02:57:40.895Z,101106.44
2023-05-02T03:00:27.953Z,101111.41
2023-05-02T03:03:15.674Z,101118.69
2023-05-02T03:06:03.763Z,101121.50
2023-05-02T03:08:48.761Z,101121.69
2023-05-02T03:11:34.061Z,101126.03
2023-05-02T03:14:18.976Z,101130.19
2023-05-02T03:17:04.657Z,101139.94
2023-05-02T03:19:49.810Z,101136.47
2023-05-02T03:22:35.275Z,101138.06
2023-05-02T03:25:20.662Z,101141.84
2023-05-02T03:28:06.277Z,101138.22
2023-05-02T03:30:51.432Z,101138.34
2023-05-02T03:33:36.944Z,101134.91
2023-05-02T03:36:22.231Z,101138.16
2023-05-02T03:39:07.637Z,101136.53
2023-05-02T03:41:52.992Z,101139.09
2023-05-02T03:44:38.384Z,101147.84
2023-05-02T03:47:23.851Z,101145.38
2023-05-02T03:50:09.381Z,101141.81
2023-05-02T03:52:54.595Z,101148.69
2023-05-02T03:55:40.815Z,101147.97
2023-05-02T03:58:25.887Z,101153.00
2023-05-02T04:01:15.713Z,101162.03
2023-05-02T04:04:00.884Z,101157.25
2023-05-02T04:06:46.226Z,101172.91
2023-05-02T04:09:31.551Z,101177.19
2023-05-02T04:12:16.888Z,101173.25
2023-05-02T04:15:02.402Z,101178.44
2023-05-02T04:17:47.956Z,101188.06
2023-05-02T04:20:33.418Z,101193.50
2023-05-02T04:23:18.758Z,101197.09
2023-05-02T04:26:04.118Z,101196.97
2023-05-02T04:28:49.150Z,101195.09
2023-05-02T04:31:34.856Z,101197.09
2023-05-02T04:34:20.516Z,101200.25
2023-05-02T04:37:05.803Z,101210.91
2023-05-02T04:39:51.082Z,101213.59
2023-05-02T04:42:36.732Z,101209.09
2023-05-02T04:45:21.957Z,101217.44
2023-05-02T04:48:07.006Z,101232.69
2023-05-02T04:50:52.767Z,101230.69
2023-05-02T04:53:38.035Z,101240.28
2023-05-02T04:56:23.167Z,101252.41
2023-05-02T04:59:08.500Z,101248.28
2023-05-02T05:01:53.460Z,101256.72
2023-05-02T05:04:38.974Z,101260.16
2023-05-02T05:07:24.267Z,101260.44
2023-05-02T05:10:09.693Z,101268.38
2023-05-02T05:12:54.841Z,101266.88
2023-05-02T05:15:41.553Z,101274.91
2023-05-02T05:18:26.744Z,101277.63
2023-05-02T05:21:12.317Z,101282.94
2023-05-02T05:23:57.550Z,101287.84
2023-05-02T05:26:43.052Z,101288.19
2023-05-02T05:29:31.439Z,101295.69
2023-05-02T05:32:17.414Z,101306.66
2023-05-02T05:35:02.736Z,101306.66
2023-05-02T05:37:48.216Z,101323.03
2023-05-02T05:40:33.569Z,101319.34
2023-05-02T05:43:18.461Z,101325.22
2023-05-02T05:46:03.791Z,101322.16
2023-05-02T05:48:49.095Z,101323.06
2023-05-02T05:51:35.499Z,101319.44
2023-05-02T05:54:21.833Z,101324.72
2023-05-02T05:57:06.782Z,101324.19
2023-05-02T05:59:52.149Z,101337.72
2023-05-02T06:02:37.564Z,101346.56
2023-05-02T06:05:22.862Z,101333.41
2023-05-02T06:08:08.343Z,101345.59
2023-05-02T06:10:54.746Z,101344.91
2023-05-02T06:13:40.201Z,101347.16
2023-05-02T06:16:25.919Z,101354.25
2023-05-02T06:19:11.074Z,101353.59
2023-05-02T06:21:56.407Z,101360.66
2023-05-02T06:24:41.867Z,101360.72
2023-05-02T06:27:27.126Z,101359.09
2023-05-02T06:30:13.147Z,101356.63
2023-05-02T06:32:58.585Z,101361.91
2023-05-02T06:35:51.180Z,101369.91
2023-05-02T06:38:36.216Z,101378.22
2023-05-02T06:41:21.637Z,101375.78
2023-05-02T06:44:07.002Z,101381.56
2023-05-02T06:46:52.467Z,101385.34
2023-05-02T06:49:37.719Z,101385.94
2023-05-02T06:52:23.127Z,101390.88
2023-05-02T06:55:09.334Z,101402.63
2023-05-02T06:57:54.990Z,101406.56
2023-05-02T07:00:40.250Z,101418.97
2023-05-02T07:03:25.805Z,101423.81
2023-05-02T07:06:11.021Z,101446.59
2023-05-02T07:08:56.406Z,101445.09
2023-05-02T07:11:41.878Z,101452.28
2023-05-02T07:14:27.129Z,101454.97
2023-05-02T07:17:12.579Z,101455.13
2023-05-02T07:19:58.023Z,101463.19
2023-05-02T07:22:43.215Z,101464.69
2023-05-02T07:25:29.864Z,101476.00
2023-05-02T07:28:15.003Z,101474.44
2023-05-02T07:31:00.376Z,101485.53
2023-05-02T07:33:45.792Z,101483.22
2023-05-02T07:36:31.177Z,101486.94
2023-05-02T07:39:16.540Z,101485.50
2023-05-02T07:42:01.547Z,101487.63
2023-05-02T07:44:46.774Z,101492.94
2023-05-02T07:47:31.783Z,101495.16
2023-05-02T07:50:17.317Z,101496.56
2023-05-02T07:53:03.094Z,101497.53
2023-05-02T07:55:48.293Z,101493.03
2023-05-02T07:58:35.402Z,101497.59
2023-05-02T08:01:20.612Z,101485.25
2023-05-02T08:04:05.970Z,101479.28
2023-05-02T08:06:51.742Z,101463.63
2023-05-02T08:09:37.400Z,101466.94
2023-05-02T08:12:22.782Z,101452.78
2023-05-02T08:15:11.427Z,101468.28
2023-05-02T08:17:56.477Z,101463.44
2023-05-02T08:20:43.327Z,101474.59
2023-05-02T08:23:29.123Z,101488.00
2023-05-02T08:26:14.109Z,101500.72
2023-05-02T08:29:00.082Z,101509.03
2023-05-02T08:31:45.130Z,101509.19
2023-05-02T08:34:30.345Z,101496.28
2023-05-02T08:37:15.786Z,101490.59
2023-05-02T08:40:01.570Z,101500.59
2023-05-02T08:42:47.448Z,101513.88
2023-05-02T08:45:41.155Z,101518.75
2023-05-02T08:48:28.182Z,101512.72
2023-05-02T08:54:03.086Z,101516.28
2023-05-02T08:56:50.460Z,101512.81
2023-05-02T08:59:35.685Z,101518.72
2023-05-02T09:02:42.155Z,101532.38
2023-05-02T09:05:27.436Z,101542.81
2023-05-02T09:08:12.800Z,101547.97
2023-05-02T09:10:58.105Z,101556.50
2023-05-02T09:13:50.693Z,101531.56
2023-05-02T09:16:38.952Z,101534.41
2023-05-02T09:19:26.019Z,101523.34
2023-05-02T09:22:11.073Z,101526.31
2023-05-02T09:24:57.251Z,101518.69
2023-05-02T09:27:54.271Z,101516.22
2023-05-02T09:30:39.890Z,101491.50
2023-05-02T09:33:28.339Z,101462.56
2023-05-02T09:36:15.684Z,101441.53
2023-05-02T09:39:18.756Z,101431.69
2023-05-02T09:42:04.057Z,101441.50
2023-05-02T09:44:49.349Z,101436.69
2023-05-02T09:47:35.747Z,101464.09
2023-05-02T09:50:38.189Z,101494.47
2023-05-02T09:53:25.775Z,101500.38
2023-05-02T09:56:11.358Z,101479.06
2023-05-02T09:59:25.902Z,101467.19
2023-05-02T10:02:10.821Z,101472.81
2023-05-02T10:04:57.135Z,101478.88
2023-05-02T10:07:44.015Z,101481.53
2023-05-02T10:10:32.859Z,101469.53
2023-05-02T10:13:21.143Z,101495.81
2023-05-02T10:16:07.302Z,101521.09
2023-05-02T10:18:56.530Z,101517.47
2023-05-02T10:21:43.478Z,101531.50
2023-05-02T10:24:32.163Z,101534.06
2023-05-02T10:27:17.719Z,101544.75
2023-05-02T10:30:04.095Z,101560.38
2023-05-02T10:32:51.353Z,101543.13
2023-05-02T10:35:38.339Z,101543.28
2023-05-02T10:38:24.746Z,101549.84
2023-05-02T10:41:14.029Z,101539.41
2023-05-02T10:43:59.252Z,101515.84
2023-05-02T10:46:44.910Z,101515.09
2023-05-02T10:49:30.834Z,101539.25
2023-05-02T10:52:27.242Z,101520.25
2023-05-02T10:55:23.800Z,101514.72
2023-05-02T10:58:09.357Z,101540.13
2023-05-02T11:01:26.505Z,101543.53
2023-05-02T11:04:11.899Z,101541.13
2023-05-02T11:06:57.208Z,101539.03
2023-05-02T11:09:43.591Z,101545.00
2023-05-02T11:12:50.740Z,101537.56
2023-05-02T11:15:41.659Z,101528.22
2023-05-02T11:18:27.123Z,101531.63
2023-05-02T11:21:26.923Z,101507.88
2023-05-02T11:24:41.962Z,101472.47
2023-05-02T11:27:30.270Z,101493.09
2023-05-02T11:30:15.502Z,101516.84
2023-05-02T11:33:06.633Z,101521.63
2023-05-02T11:35:53.268Z,101532.81
2023-05-02T11:38:39.439Z,101499.16
2023-05-02T11:41:41.053Z,101537.72
2023-05-02T11:44:26.513Z,101529.41
2023-05-02T11:47:11.817Z,101539.25
2023-05-02T11:49:58.044Z,101561.25
2023-05-02T11:52:45.149Z,101570.28
2023-05-02T11:55:30.688Z,101556.84
2023-05-02T11:58:18.690Z,101551.13
2023-05-02T12:01:14.983Z,101526.56
2023-05-02T12:04:07.778Z,101563.69
2023-05-02T12:06:57.685Z,101560.63
2023-05-02T12:09:53.085Z,101561.31
2023-05-02T12:12:38.474Z,101567.63
2023-05-02T12:15:23.531Z,101587.41
2023-05-02T12:18:09.299Z,101583.22
2023-05-02T12:20:56.358Z,101609.72
2023-05-02T12:23:41.677Z,101601.50
2023-05-02T12:26:26.868Z,101596.69
2023-05-02T12:29:11.965Z,101563.50
2023-05-02T12:31:57.426Z,101547.66
2023-05-02T12:34:43.298Z,101561.19
2023-05-02T12:37:28.776Z,101567.25
2023-05-02T12:40:17.379Z,101543.56
2023-05-02T12:43:04.752Z,101574.38
2023-05-02T12:45:50.440Z,101570.47
2023-05-02T12:48:36.297Z,101528.38
2023-05-02T12:51:23.516Z,101507.53
2023-05-02T12:54:20.163Z,101511.00
2023-05-02T12:57:05.676Z,101491.31
2023-05-02T12:59:54.679Z,101495.34
2023-05-02T13:02:40.197Z,101487.63
2023-05-02T13:05:25.261Z,101473.66
2023-05-02T13:08:10.066Z,101467.75
2023-05-02T13:10:55.259Z,101420.13
2023-05-02T13:13:41.524Z,101434.34
2023-05-02T13:16:27.282Z,101421.44
2023-05-02T13:19:12.704Z,101506.84
2023-05-02T13:21:57.942Z,101508.28
2023-05-02T13:24:44.987Z,101430.06
2023-05-02T13:27:30.636Z,101399.94
2023-05-02T13:30:16.180Z,101439.56
2023-05-02T13:33:02.700Z,101385.56
2023-05-02T13:35:48.033Z,101431.03
2023-05-02T13:38:33.470Z,101478.44
2023-05-02T13:41:19.501Z,101474.13
2023-05-02T13:44:04.955Z,101499.50
2023-05-02T13:46:49.868Z,101425.09
2023-05-02T13:49:35.171Z,101497.44
2023-05-02T13:52:20.303Z,101516.59
2023-05-02T13:55:06.105Z,101506.50
2023-05-02T13:57:51.402Z,101537.44
2023-05-02T14:00:36.865Z,101527.38
2023-05-02T14:03:22.297Z,101503.75
2023-05-02T14:06:07.931Z,101503.53
2023-05-02T14:08:52.850Z,101498.88
2023-05-02T14:11:37.847Z,101488.44
2023-05-02T14:14:22.906Z,101541.06
2023-05-02T14:17:08.140Z,101554.91
2023-05-02T14:19:53.958Z,101557.31
2023-05-02T14:22:39.196Z,101548.00
2023-05-02T14:25:24.618Z,101554.47
2023-05-02T14:28:09.956Z,101542.47
2023-05-02T14:30:55.275Z,101478.06
2023-05-02T14:33:40.618Z,101460.53
2023-05-02T14:36:27.097Z,101503.75
2023-05-02T14:39:12.647Z,101534.44
2023-05-02T14:41:58.171Z,101528.81
2023-05-02T14:44:44.744Z,101549.91
2023-05-02T14:47:30.161Z,101570.09
2023-05-02T14:50:15.944Z,101569.25
2023-05-02T14:53:01.336Z,101591.00
2023-05-02T14:55:46.568Z,101545.03
2023-05-02T14:58:32.066Z,101555.09
2023-05-02T15:01:21.654Z,101548.59
2023-05-02T15:04:08.218Z,101531.81
2023-05-02T15:06:53.837Z,101554.19
2023-05-02T15:09:39.273Z,101541.13
2023-05-02T15:12:24.508Z,101537.00
2023-05-02T15:15:10.114Z,101531.75
2023-05-02T15:17:55.615Z,101514.19
2023-05-02T15:20:40.706Z,101530.31
2023-05-02T15:23:25.718Z,101548.84
2023-05-02T15:26:10.967Z,101526.34
2023-05-02T15:28:56.429Z,101500.22
2023-05-02T15:31:41.633Z,101503.53
2023-05-02T15:34:27.367Z,101496.38
2023-05-02T15:37:12.357Z,101543.72
2023-05-02T15:39:57.255Z,101543.13
2023-05-02T15:42:42.746Z,101520.06
2023-05-02T15:45:28.327Z,101539.06
2023-05-02T15:48:13.635Z,101541.78
2023-05-02T15:50:59.183Z,101455.03
2023-05-02T15:53:44.556Z,101491.72
2023-05-02T15:56:30.654Z,101528.28
2023-05-02T15:59:17.150Z,101492.06
2023-05-02T16:02:02.618Z,101531.81
2023-05-02T16:04:47.979Z,101574.38
2023-05-02T16:07:33.322Z,101540.25
2023-05-02T16:10:18.256Z,101498.38
2023-05-02T16:13:03.906Z,101482.59
2023-05-02T16:15:49.407Z,101510.13
2023-05-02T16:18:34.643Z,101529.22
2023-05-02T16:21:19.552Z,101547.31
2023-05-02T16:24:04.719Z,101517.97
2023-05-02T16:26:49.742Z,101532.63
2023-05-02T16:29:34.573Z,101545.03
2023-05-02T16:32:20.064Z,101598.31
2023-05-02T16:35:06.313Z,101565.94
2023-05-02T16:37:51.219Z,101540.34
2023-05-02T16:40:36.248Z,101550.25
2023-05-02T16:43:21.619Z,101577.25
2023-05-02T16:46:07.401Z,101602.06
2023-05-02T16:48:52.782Z,101591.53
2023-05-02T16:51:37.664Z,101560.16
2023-05-02T16:54:23.062Z,101601.22
2023-05-02T16:57:07.854Z,101597.19
2023-05-02T16:59:53.393Z,101590.84
2023-05-02T17:02:38.952Z,101592.75
2023-05-02T17:05:24.127Z,101613.69
2023-05-02T17:08:09.862Z,101635.75
2023-05-02T17:10:56.044Z,101621.56
2023-05-02T17:13:41.416Z,101651.31
2023-05-02T17:16:26.838Z,101671.50
2023-05-02T17:19:12.158Z,101650.56
2023-05-02T17:21:58.142Z,101651.16
2023-05-02T17:24:43.440Z,101669.16
2023-05-02T17:27:28.399Z,101653.25
2023-05-02T17:30:14.227Z,101663.72
2023-05-02T17:32:59.454Z,101696.31
2023-05-02T17:35:44.558Z,101701.78
2023-05-02T17:38:29.465Z,101690.41
2023-05-02T17:41:15.069Z,101687.47
2023-05-02T17:44:00.349Z,101696.16
2023-05-02T17:46:45.380Z,101701.69
2023-05-02T17:49:30.648Z,101688.22
2023-05-02T17:52:15.634Z,101716.25
2023-05-02T17:55:00.896Z,101687.56
2023-05-02T17:57:46.110Z,101688.03
2023-05-02T18:00:31.663Z,101679.31
2023-05-02T18:03:17.046Z,101684.75
2023-05-02T18:06:02.450Z,101698.31
2023-05-02T18:08:48.013Z,101694.53
2023-05-02T18:11:33.393Z,101724.19
2023-05-02T18:14:18.979Z,101715.91
2023-05-02T18:17:04.313Z,101725.69
2023-05-02T18:19:49.748Z,101725.59
2023-05-02T18:22:35.403Z,101723.72
2023-05-02T18:25:20.637Z,101735.16
2023-05-02T18:28:05.856Z,101733.75
2023-05-02T18:30:51.084Z,101738.63
2023-05-02T18:33:36.284Z,101734.94
2023-05-02T18:36:26.216Z,101732.91
2023-05-02T18:39:12.523Z,101737.09
2023-05-02T18:41:57.983Z,101745.19
2023-05-02T18:44:43.065Z,101757.53
2023-05-02T18:47:28.800Z,101767.59
2023-05-02T18:50:14.131Z,101772.25
2023-05-02T18:52:59.310Z,101797.25
2023-05-02T18:55:44.272Z,101777.69
2023-05-02T18:58:29.573Z,101782.84
2023-05-02T19:01:16.090Z,101799.03
2023-05-02T19:04:01.483Z,101801.53
2023-05-02T19:06:46.759Z,101816.50
2023-05-02T19:09:32.088Z,101822.72
2023-05-02T19:12:17.690Z,101813.41
2023-05-02T19:15:03.347Z,101809.66
2023-05-02T19:17:49.453Z,101822.91
2023-05-02T19:20:34.620Z,101825.59
2023-05-02T19:23:20.652Z,101825.72
2023-05-02T19:26:19.216Z,101833.13
2023-05-02T19:29:04.838Z,101824.03
2023-05-02T19:31:50.180Z,101823.69
2023-05-02T19:34:35.773Z,101837.13
2023-05-02T19:37:21.051Z,101842.97
2023-05-02T19:40:06.944Z,101851.13
2023-05-02T19:42:52.257Z,101850.69
2023-05-02T19:45:37.458Z,101853.81
2023-05-02T19:48:22.853Z,101837.31
2023-05-02T19:51:08.380Z,101858.09
2023-05-02T19:53:54.072Z,101868.97
2023-05-02T19:56:39.620Z,101879.22
2023-05-02T19:59:24.905Z,101842.63
2023-05-02T20:02:10.724Z,101831.09
2023-05-02T20:04:56.480Z,101826.06
2023-05-02T20:07:41.513Z,101827.94
2023-05-02T20:10:27.131Z,101825.13
2023-05-02T20:13:12.365Z,101833.25
2023-05-02T20:15:57.832Z,101824.63
2023-05-02T20:18:42.984Z,101845.81
2023-05-02T20:21:27.981Z,101867.25
2023-05-02T20:24:12.929Z,101864.00
2023-05-02T20:26:58.340Z,101852.00
2023-05-02T20:29:43.219Z,101858.19
2023-05-02T20:32:28.056Z,101889.72
2023-05-02T20:35:13.483Z,101900.59
2023-05-02T20:37:58.359Z,101908.94
2023-05-02T20:40:43.682Z,101923.63
2023-05-02T20:43:28.603Z,101931.84
2023-05-02T20:46:17.389Z,101915.25
2023-05-02T20:49:02.550Z,101916.75
2023-05-02T20:51:47.308Z,101938.63
2023-05-02T20:54:32.173Z,101949.22
2023-05-02T20:57:17.617Z,101949.06
2023-05-02T21:00:02.842Z,101965.28
2023-05-02T21:02:48.282Z,101979.16
2023-05-02T21:05:33.300Z,101964.41
2023-05-02T21:08:19.035Z,101954.00
2023-05-02T21:11:13.018Z,101936.91
2023-05-02T21:13:58.559Z,101931.28
2023-05-02T21:16:43.536Z,101930.44
2023-05-02T21:19:28.982Z,101950.78
2023-05-02T21:22:14.077Z,101937.13
2023-05-02T21:24:59.133Z,101949.13
2023-05-02T21:27:44.045Z,101960.44
2023-05-02T21:30:29.622Z,101953.44
2023-05-02T21:33:14.872Z,101969.34
2023-05-02T21:36:00.318Z,101974.28
2023-05-02T21:38:45.153Z,101982.78
2023-05-02T21:41:30.568Z,101984.22
2023-05-02T21:44:15.851Z,101993.47
2023-05-02T21:47:01.413Z,101995.22
2023-05-02T21:49:46.771Z,102011.78
2023-05-02T21:52:31.807Z,102016.66
2023-05-02T21:55:16.967Z,102013.78
2023-05-02T21:58:02.538Z,102012.56
2023-05-02T22:00:47.816Z,102024.72
2023-05-02T22:03:33.260Z,102034.50
2023-05-02T22:06:18.490Z,102037.09
2023-05-02T22:09:03.938Z,102014.16
2023-05-02T22:11:49.287Z,102014.50
2023-05-02T22:14:44.645Z,102009.06
2023-05-02T22:17:31.139Z,102032.22
2023-05-02T22:20:16.558Z,102060.69
2023-05-02T22:23:01.987Z,102069.06
2023-05-02T22:25:47.072Z,102088.53
2023-05-02T22:28:32.000Z,102086.84
2023-05-02T22:31:17.452Z,102084.75
2023-05-02T22:34:02.807Z,102094.72
2023-05-02T22:36:47.910Z,102092.59
2023-05-02T22:39:33.121Z,102094.81
2023-05-02T22:42:18.506Z,102101.19
2023-05-02T22:45:03.560Z,102099.06
2023-05-02T22:47:48.701Z,102104.59
2023-05-02T22:50:34.108Z,102107.59
2023-05-02T22:53:19.385Z,102111.50
2023-05-02T22:56:04.549Z,102102.28
2023-05-02T22:58:49.587Z,102102.88
2023-05-02T23:01:34.383Z,102103.50
2023-05-02T23:04:19.662Z,102120.81
2023-05-02T23:07:04.597Z,102116.63
2023-05-02T23:09:49.959Z,102115.72
2023-05-02T23:12:35.285Z,102112.44
2023-05-02T23:15:20.254Z,102127.72
2023-05-02T23:18:05.931Z,102122.00
2023-05-02T23:20:50.982Z,102114.13
2023-05-02T23:23:36.415Z,102112.09
2023-05-02T23:26:22.031Z,102114.59
2023-05-02T23:29:07.395Z,102122.38
2023-05-02T23:31:52.678Z,102128.25
2023-05-02T23:34:38.073Z,102127.69
2023-05-02T23:37:23.362Z,102120.09
2023-05-02T23:40:08.887Z,102131.22
2023-05-02T23:42:54.528Z,102131.84
2023-05-02T23:45:39.787Z,102139.31
2023-05-02T23:48:24.912Z,102133.00
2023-05-02T23:51:10.291Z,102136.00
2023-05-02T23:53:55.464Z,102137.63
2023-05-02T23:56:41.134Z,102147.38
2023-05-02T23:59:26.348Z,102157.66
